Flight Track Log - Related Links

Times and Time Zones

All times are in EDT time to prevent confusion due to time zone crossing. See the N1KT flight status page for this flight to view local times or setup timezone preferences in your user account.


Time Position Orientation Groundspeed Altitude Reporting Facility
EDT Latitude Longitude Course Direction KTS MPH feet Rate Location/Type
Thu 02:38:14 PM 37.8572 -88.3983 71° East 265 305 4,600  Level Kansas City Center
Thu 02:39:15 PM 37.8817 -88.3111 70° East 262 302 8,000 2,903 Climbing Kansas City Center
Thu 02:40:18 PM 37.9100 -88.2119 70° East 289 333 10,600 2,496 Climbing Kansas City Center
Thu 02:41:20 PM 37.9386 -88.1042 71° East 313 360 13,200 2,488 Climbing Kansas City Center
Thu 02:42:21 PM 37.9694 -87.9947 70° East 327 376 15,700 2,640 Climbing Kansas City Center
Thu 02:43:00 PM 38.0114 -87.8080 71° East  Level FlightAware Approximate
Thu 02:43:25 PM 38.0067 -87.8592 71° East 336 387 18,700  Level Kansas City Center
Thu 02:44:25 PM 38.0375 -87.7444 71° East 342 394 20,600 1,756 Climbing Kansas City Center
Thu 02:45:28 PM 38.0714 -87.6239 70° East 355 409 22,300 1,641 Climbing Kansas City Center
Thu 02:46:33 PM 38.1053 -87.4958 71° East 378 435 24,100 1,795 Climbing Indianapolis Center
Thu 02:47:35 PM 38.1469 -87.3425 71° East 384 442 26,100 1,790 Climbing Indianapolis Center
Thu 02:48:37 PM 38.1811 -87.2122 72° East 388 447 27,800 1,452 Climbing Indianapolis Center
Thu 02:49:39 PM 38.2172 -87.0764 71° East 394 453 29,100 1,073 Climbing Indianapolis Center
Thu 02:50:40 PM 38.2511 -86.9447 72° East 410 472 30,000 878 Climbing Indianapolis Center
Thu 02:51:42 PM 38.2889 -86.8042 71° East 425 489 30,900 484 Climbing Indianapolis Center
Thu 02:52:44 PM 38.3358 -86.6256 71° East 441 507 31,000 435 Climbing Indianapolis Center
Thu 02:53:46 PM 38.3761 -86.4697 72° East 460 529 31,800 968 Climbing Indianapolis Center
Thu 02:54:48 PM 38.4153 -86.3203 71° East 447 514 33,000 585 Climbing Indianapolis Center
Thu 02:55:49 PM 38.4550 -86.1672 72° East 451 519 33,000  Level Indianapolis Center
Thu 02:56:51 PM 38.4936 -86.0125 72° East 456 525 33,000  Level Indianapolis Center
Thu 02:57:53 PM 38.5333 -85.8569 72° East 459 528 33,000  Level Indianapolis Center
Thu 02:58:55 PM 38.5728 -85.7019 72° East 459 528 33,000  Level Indianapolis Center
Thu 02:59:57 PM 38.6136 -85.5472 71° East 459 528 33,000  Level Indianapolis Center
Thu 03:00:59 PM 38.6753 -85.3692 66° East 452 520 33,000  Level Indianapolis Center
Thu 03:02:01 PM 38.7222 -85.2203 68° East 453 521 33,000  Level Indianapolis Center
Thu 03:03:03 PM 38.7703 -85.0711 68° East 454 522 33,000  Level Indianapolis Center
Thu 03:04:05 PM 38.8175 -84.9203 68° East 457 526 33,000  Level Indianapolis Center
Thu 03:05:07 PM 38.8650 -84.7669 68° East 463 533 33,000  Level Indianapolis Center
Thu 03:06:09 PM 38.9214 -84.5911 68° East 463 533 33,000  Level Indianapolis Center
Thu 03:07:11 PM 38.9692 -84.4344 69° East 468 539 33,000  Level Indianapolis Center
Thu 03:08:13 PM 39.0169 -84.2786 68° East 467 537 33,000  Level Indianapolis Center
Thu 03:09:15 PM 39.0647 -84.1217 69° East 468 539 33,000  Level Indianapolis Center
Thu 03:10:16 PM 39.1125 -83.9653 68° East 468 539 33,000  Level Indianapolis Center
Thu 03:11:18 PM 39.1603 -83.8094 68° East 466 536 33,000  Level Indianapolis Center
Thu 03:12:20 PM 39.2153 -83.6256 69° East 468 539 33,000 -387 Level Indianapolis Center
Thu 03:13:22 PM 39.2625 -83.4700 69° East 466 536 32,200 -1,113 Descending Indianapolis Center
Thu 03:14:24 PM 39.3089 -83.3133 69° East 466 536 30,700 -1,452 Descending Indianapolis Center
Thu 03:15:26 PM 39.3558 -83.1569 69° East 467 537 29,200 -1,452 Descending Indianapolis Center
Thu 03:16:28 PM 39.4006 -83.0033 69° East 457 526 27,700 -1,403 Descending Indianapolis Center
Thu 03:17:30 PM 39.4450 -82.8528 69° East 449 517 26,300 -1,548 Descending Indianapolis Center
Thu 03:18:32 PM 39.4956 -82.6797 69° East 440 506 24,500 -1,113 Descending Indianapolis Center
Thu 03:19:34 PM 39.5369 -82.5297 72° East 440 506 24,000 -242 Descending Indianapolis Center
Thu 03:20:00 PM 39.5453 -82.4838 72° East  Level FlightAware Approximate
Thu 03:20:36 PM 39.5767 -82.3769 71° East 445 512 24,000  Level Indianapolis Center
Thu 03:21:38 PM 39.6228 -82.2264 68° East 446 513 22,800 -1,452 Descending Indianapolis Center
Thu 03:22:40 PM 39.6600 -82.0914 70° East 426 490 21,000 -1,790 Descending Indianapolis Center
Thu 03:23:42 PM 39.7006 -81.9522 69° East 414 476 19,100 -1,935 Descending Indianapolis Center
Thu 03:25:46 PM 39.7781 -81.6769 70° East 388 447 15,000 -1,935 Descending Indianapolis Center
Thu 03:26:48 PM 39.8200 -81.5278 70° East 377 434 13,100 -1,258 Descending Indianapolis Center
Thu 03:27:50 PM 39.8536 -81.4078 70° East 371 427 12,400 -1,403 Descending Indianapolis Center
Thu 03:28:52 PM 39.8867 -81.2919 70° East 347 399 10,200 -2,274 Descending Indianapolis Center
Thu 03:29:54 PM 39.9144 -81.1889 71° East 307 353 7,700 -2,129 Descending Indianapolis Center
Thu 03:30:56 PM 39.9411 -81.0917 70° East 288 331 5,800 -1,306 Descending Indianapolis Center
Thu 03:31:58 PM 39.9689 -80.9886 71° East 264 304 5,000 -387 Descending Indianapolis Center
Thu 03:33:00 PM 39.9925 -80.9039 70° East 256 295 5,000 -97 Level Indianapolis Center
Thu 03:34:02 PM 40.0117 -80.8311 71° East 250 288 4,800 -987 Descending Indianapolis Center
Thu 03:34:19 PM 40.0231 -80.7972 66° East 244 281 3,700 -1,247 Descending Cleveland Center
Thu 03:35:19 PM 40.0503 -80.7294 62° Northeast 234 269 3,200 -350 Descending Cleveland Center
Thu 03:36:19 PM 40.0881 -80.7025 29° Northeast 182 209 3,000 -500 Descending Cleveland Center
Thu 03:37:19 PM 40.1233 -80.6781 28° Northeast 158 182 2,200 -750 Descending Cleveland Center
Thu 03:38:19 PM 40.1589 -80.6564 25° Northeast 146 168 1,500 1,400 Descending Cleveland Center
Thu 03:39:19 PM 40.2006 -80.6211 33° Northeast 146 168 5,000 1,750 Climbing Cleveland Center
Thu 03:40:19 PM 40.2361 -80.5939 30° Northeast 146 168 5,000  Level Cleveland Center
Thu 03:41:19 PM 40.2736 -80.5667 29° Northeast 146 168 5,000  Level Cleveland Center
Thu 03:42:19 PM 40.3089 -80.5394 30° Northeast 146 168 5,000  Level Cleveland Center

Login

Don't have an account? Register now (free) for customized features, flight alerts, and more!